Walla Walla Regional Airport
KALW : now visible

Airfield :











YOU CAN JOIN US ON...

 
LOGIN :

Register | Disclaimer

   EN    FR    IT 

 









Legend :    VFR   Marginal VFR   IFR   Intensive IFR   Very Intensive IFR
Visi :
Ceiling :
>= 8 km
>= 3000ft
5 to 8 km
1000 to 3000 ft
1500m to 5 km
500 to 1000 ft
800 to 1500m
200 to 500 ft
< 800m
< 200 ft
Symbols :   Thunderstorms  Fog  Heavy snow  Heavy precipitations  Wind > 20 kt






- Airport Elevation : 1194 ft
- IATA code : ALW


KALW - Walla Walla Regional

CURRENT METAR :
  • 091026Z AUTO 14003KT 9SM OVC004 02/02 A3023 RMK AO2 T00220022

EXPIRED METARs :
  • 090953Z AUTO 12004KT 8SM OVC005 02/02 A3022 RMK AO2 SLP244 T00220017
  • 090917Z AUTO 09004KT 3SM BR OVC006 02/01 A3022 RMK AO2 T00170011
  • 090904Z AUTO 07004KT 1 3/4SM R20/3000VP6000FT BR OVC006 02/01 A3022 RMK AO2 T00170011
  • 090822Z AUTO 04007KT 10SM BKN005 BKN045 01/00 A3021 RMK AO2 T00060000
  • 090809Z AUTO 04005KT 10SM SCT005 SCT045 01/01 A3021 RMK AO2 T00110006
  • 090753Z AUTO 06005KT 10SM BKN006 02/01 A3020 RMK AO2 SLP236 T00170011 400440011

TAF KALW
Valid from the 09 at 10:00 until the 10 at 06:00 UTC


090938Z 0910/1006 VRB02KT P6SM SCT006 OVC040
TEMPO 0910/0912 1SM BR OVC004
FM091200 12007KT 1/4SM FG OVC001



MET'MAP, your aeronautical weather chart ! - Copyright ORBIFLY December 2007 - Disclaimer

ORBIFLY MET'MAP TEAM :

Programming & Development : Alexandra Zaïnal
Concept & original design : Baudouin d'Aumeries
Assistance for programming : Marc-Olivier Méhu
Technical & hardware support : Manuel Goepfert

Contact : metmap@orbifly.com




SOURCES & CREDITS :

   NOAA       Earth
Advisory